sensor_id;sensor_type;location;lat;lon;timestamp;pressure;altitude;pressure_sealevel;temperature;humidity
66273;BME280;58450;52.150;4.466;2023-05-01T00:00:58;101821.25;;;12.46;100.00
66273;BME280;58450;52.150;4.466;2023-05-01T00:03:26;101815.84;;;12.54;100.00
66273;BME280;58450;52.150;4.466;2023-05-01T00:05:58;101817.66;;;12.53;100.00
66273;BME280;58450;52.150;4.466;2023-05-01T00:08:27;101814.16;;;12.53;100.00
66273;BME280;58450;52.150;4.466;2023-05-01T00:10:54;101818.13;;;12.65;100.00
66273;BME280;58450;52.150;4.466;2023-05-01T00:13:22;101807.22;;;12.50;100.00
66273;BME280;58450;52.150;4.466;2023-05-01T00:15:51;101807.22;;;12.50;100.00
66273;BME280;58450;52.150;4.466;2023-05-01T00:18:18;101797.78;;;12.46;100.00
66273;BME280;58450;52.150;4.466;2023-05-01T00:20:46;101805.06;;;12.46;100.00
66273;BME280;58450;52.150;4.466;2023-05-01T00:23:17;101802.44;;;12.61;100.00
66273;BME280;58450;52.150;4.466;2023-05-01T00:25:45;101798.47;;;12.48;100.00
66273;BME280;58450;52.150;4.466;2023-05-01T00:28:12;101791.53;;;12.54;100.00
66273;BME280;58450;52.150;4.466;2023-05-01T00:30:39;101793.75;;;12.42;100.00
66273;BME280;58450;52.150;4.466;2023-05-01T00:33:08;101794.66;;;12.66;100.00
66273;BME280;58450;52.150;4.466;2023-05-01T00:35:36;101782.72;;;12.60;100.00
66273;BME280;58450;52.150;4.466;2023-05-01T00:38:03;101784.41;;;12.61;100.00
66273;BME280;58450;52.150;4.466;2023-05-01T00:40:31;101786.97;;;12.54;100.00
66273;BME280;58450;52.150;4.466;2023-05-01T00:42:58;101784.25;;;12.54;100.00
66273;BME280;58450;52.150;4.466;2023-05-01T00:45:26;101783.75;;;12.59;100.00
66273;BME280;58450;52.150;4.466;2023-05-01T00:47:53;101781.78;;;12.45;100.00
66273;BME280;58450;52.150;4.466;2023-05-01T00:50:22;101763.19;;;12.50;100.00
66273;BME280;58450;52.150;4.466;2023-05-01T00:52:49;101759.91;;;12.31;100.00
66273;BME280;58450;52.150;4.466;2023-05-01T00:55:17;101761.88;;;12.46;100.00
66273;BME280;58450;52.150;4.466;2023-05-01T00:57:45;101749.13;;;12.31;100.00
66273;BME280;58450;52.150;4.466;2023-05-01T01:00:16;101750.69;;;12.25;100.00
66273;BME280;58450;52.150;4.466;2023-05-01T01:02:45;101747.31;;;12.23;100.00
66273;BME280;58450;52.150;4.466;2023-05-01T01:05:12;101744.47;;;12.17;100.00
66273;BME280;58450;52.150;4.466;2023-05-01T01:07:50;101735.88;;;12.13;100.00
66273;BME280;58450;52.150;4.466;2023-05-01T01:10:29;101724.19;;;12.21;100.00
66273;BME280;58450;52.150;4.466;2023-05-01T01:13:07;101722.22;;;12.15;100.00
66273;BME280;58450;52.150;4.466;2023-05-01T01:15:43;101720.88;;;12.10;100.00
66273;BME280;58450;52.150;4.466;2023-05-01T01:18:22;101704.50;;;12.20;100.00
66273;BME280;58450;52.150;4.466;2023-05-01T01:21:00;101705.34;;;12.12;100.00
66273;BME280;58450;52.150;4.466;2023-05-01T01:23:52;101705.56;;;12.03;100.00
66273;BME280;58450;52.150;4.466;2023-05-01T01:27:01;101702.50;;;12.14;100.00
66273;BME280;58450;52.150;4.466;2023-05-01T01:30:06;101692.75;;;11.96;100.00
66273;BME280;58450;52.150;4.466;2023-05-01T01:33:24;;;;11.91;
66273;BME280;58450;52.150;4.466;2023-05-01T01:36:19;101688.28;;;11.80;100.00
66273;BME280;58450;52.150;4.466;2023-05-01T01:39:00;101689.81;;;11.75;100.00
66273;BME280;58450;52.150;4.466;2023-05-01T01:41:35;101689.75;;;11.91;100.00
66273;BME280;58450;52.150;4.466;2023-05-01T01:44:08;101689.56;;;11.93;100.00
66273;BME280;58450;52.150;4.466;2023-05-01T01:46:47;101688.38;;;12.04;100.00
66273;BME280;58450;52.150;4.466;2023-05-01T01:49:21;101688.19;;;11.97;100.00
66273;BME280;58450;52.150;4.466;2023-05-01T01:51:54;101676.38;;;12.06;100.00
66273;BME280;58450;52.150;4.466;2023-05-01T01:54:28;101672.66;;;11.99;100.00
66273;BME280;58450;52.150;4.466;2023-05-01T01:57:02;101671.53;;;11.93;100.00
66273;BME280;58450;52.150;4.466;2023-05-01T01:59:33;101672.84;;;11.97;100.00
66273;BME280;58450;52.150;4.466;2023-05-01T02:02:02;101676.56;;;11.96;100.00
66273;BME280;58450;52.150;4.466;2023-05-01T02:04:32;101661.31;;;11.80;100.00
66273;BME280;58450;52.150;4.466;2023-05-01T02:07:03;101661.34;;;11.72;100.00
66273;BME280;58450;52.150;4.466;2023-05-01T02:09:33;101653.44;;;11.62;100.00
66273;BME280;58450;52.150;4.466;2023-05-01T02:12:04;101647.22;;;11.62;100.00
66273;BME280;58450;52.150;4.466;2023-05-01T02:14:34;101650.03;;;11.77;100.00
66273;BME280;58450;52.150;4.466;2023-05-01T02:17:03;101643.31;;;11.64;100.00
66273;BME280;58450;52.150;4.466;2023-05-01T02:19:33;101643.34;;;11.56;100.00
66273;BME280;58450;52.150;4.466;2023-05-01T02:22:03;101643.88;;;11.60;100.00
66273;BME280;58450;52.150;4.466;2023-05-01T02:24:34;101644.47;;;11.78;100.00
66273;BME280;58450;52.150;4.466;2023-05-01T02:27:11;101639.47;;;11.67;100.00
66273;BME280;58450;52.150;4.466;2023-05-01T02:29:42;101644.16;;;11.73;100.00
66273;BME280;58450;52.150;4.466;2023-05-01T02:32:09;101652.03;;;11.83;100.00
66273;BME280;58450;52.150;4.466;2023-05-01T02:34:37;101631.72;;;11.64;100.00
66273;BME280;58450;52.150;4.466;2023-05-01T02:37:06;101626.97;;;11.74;100.00
66273;BME280;58450;52.150;4.466;2023-05-01T02:39:38;101629.72;;;11.58;100.00
66273;BME280;58450;52.150;4.466;2023-05-01T02:42:07;101627.66;;;11.68;100.00
66273;BME280;58450;52.150;4.466;2023-05-01T02:44:39;101618.06;;;11.57;100.00
66273;BME280;58450;52.150;4.466;2023-05-01T02:47:12;101625.97;;;11.67;100.00
66273;BME280;58450;52.150;4.466;2023-05-01T02:49:44;101619.06;;;11.64;100.00
66273;BME280;58450;52.150;4.466;2023-05-01T02:52:14;101611.19;;;11.55;100.00
66273;BME280;58450;52.150;4.466;2023-05-01T02:54:44;101609.28;;;11.63;100.00
66273;BME280;58450;52.150;4.466;2023-05-01T02:57:12;101603.06;;;11.63;100.00
66273;BME280;58450;52.150;4.466;2023-05-01T02:59:39;101604.06;;;11.70;100.00
66273;BME280;58450;52.150;4.466;2023-05-01T03:02:07;101596.66;;;11.64;100.00
66273;BME280;58450;52.150;4.466;2023-05-01T03:04:34;101604.09;;;11.62;100.00
66273;BME280;58450;52.150;4.466;2023-05-01T03:07:02;101597.00;;;11.61;100.00
66273;BME280;58450;52.150;4.466;2023-05-01T03:09:31;101597.50;;;11.64;100.00
66273;BME280;58450;52.150;4.466;2023-05-01T03:11:58;101599.00;;;11.67;100.00
66273;BME280;58450;52.150;4.466;2023-05-01T03:14:27;101597.97;;;11.76;100.00
66273;BME280;58450;52.150;4.466;2023-05-01T03:16:54;101588.31;;;11.82;100.00
66273;BME280;58450;52.150;4.466;2023-05-01T03:19:23;101585.13;;;11.78;100.00
66273;BME280;58450;52.150;4.466;2023-05-01T03:21:50;101585.25;;;11.85;100.00
66273;BME280;58450;52.150;4.466;2023-05-01T03:24:18;101586.31;;;11.76;100.00
66273;BME280;58450;52.150;4.466;2023-05-01T03:26:47;101579.03;;;11.85;100.00
66273;BME280;58450;52.150;4.466;2023-05-01T03:29:14;101585.91;;;11.87;100.00
66273;BME280;58450;52.150;4.466;2023-05-01T03:31:42;101578.06;;;11.77;100.00
66273;BME280;58450;52.150;4.466;2023-05-01T03:34:09;101572.00;;;11.75;100.00
66273;BME280;58450;52.150;4.466;2023-05-01T03:36:37;101571.16;;;11.75;100.00
66273;BME280;58450;52.150;4.466;2023-05-01T03:39:04;101569.31;;;11.75;100.00
66273;BME280;58450;52.150;4.466;2023-05-01T03:41:33;101561.94;;;11.69;100.00
66273;BME280;58450;52.150;4.466;2023-05-01T03:44:02;101568.81;;;11.72;100.00
66273;BME280;58450;52.150;4.466;2023-05-01T03:46:30;101567.22;;;11.86;100.00
66273;BME280;58450;52.150;4.466;2023-05-01T03:48:57;101556.50;;;11.77;100.00
66273;BME280;58450;52.150;4.466;2023-05-01T03:51:24;101553.44;;;11.80;100.00
66273;BME280;58450;52.150;4.466;2023-05-01T03:53:52;101553.84;;;11.69;100.00
66273;BME280;58450;52.150;4.466;2023-05-01T03:56:21;101553.56;;;11.87;100.00
66273;BME280;58450;52.150;4.466;2023-05-01T03:58:50;101556.19;;;11.72;100.00
66273;BME280;58450;52.150;4.466;2023-05-01T04:01:19;101552.28;;;11.75;100.00
66273;BME280;58450;52.150;4.466;2023-05-01T04:03:47;101551.25;;;11.76;100.00
66273;BME280;58450;52.150;4.466;2023-05-01T04:06:14;101550.38;;;11.83;100.00
66273;BME280;58450;52.150;4.466;2023-05-01T04:08:42;101550.03;;;11.87;100.00
66273;BME280;58450;52.150;4.466;2023-05-01T04:11:10;101552.44;;;11.81;100.00
66273;BME280;58450;52.150;4.466;2023-05-01T04:13:38;101543.28;;;11.91;100.00
66273;BME280;58450;52.150;4.466;2023-05-01T04:16:06;101553.41;;;11.89;100.00
66273;BME280;58450;52.150;4.466;2023-05-01T04:18:35;101553.41;;;11.89;100.00
66273;BME280;58450;52.150;4.466;2023-05-01T04:21:02;101552.19;;;11.91;100.00
66273;BME280;58450;52.150;4.466;2023-05-01T04:23:30;101542.25;;;11.92;100.00
66273;BME280;58450;52.150;4.466;2023-05-01T04:25:58;101541.19;;;11.93;100.00
66273;BME280;58450;52.150;4.466;2023-05-01T04:28:25;101542.34;;;12.07;100.00
66273;BME280;58450;52.150;4.466;2023-05-01T04:30:52;101541.47;;;12.06;100.00
66273;BME280;58450;52.150;4.466;2023-05-01T04:33:20;101544.41;;;11.96;100.00
66273;BME280;58450;52.150;4.466;2023-05-01T04:35:49;101551.63;;;12.04;100.00
66273;BME280;58450;52.150;4.466;2023-05-01T04:38:17;101541.13;;;12.09;100.00
66273;BME280;58450;52.150;4.466;2023-05-01T04:40:44;101538.81;;;12.45;100.00
66273;BME280;58450;52.150;4.466;2023-05-01T04:43:12;101538.53;;;12.39;100.00
66273;BME280;58450;52.150;4.466;2023-05-01T04:45:39;101539.63;;;12.30;100.00
66273;BME280;58450;52.150;4.466;2023-05-01T04:48:07;101537.88;;;12.37;100.00
66273;BME280;58450;52.150;4.466;2023-05-01T04:50:34;101539.00;;;12.43;100.00
66273;BME280;58450;52.150;4.466;2023-05-01T04:53:03;101538.53;;;12.39;100.00
66273;BME280;58450;52.150;4.466;2023-05-01T04:55:31;101537.28;;;12.27;100.00
66273;BME280;58450;52.150;4.466;2023-05-01T04:57:59;101539.34;;;12.40;100.00
66273;BME280;58450;52.150;4.466;2023-05-01T05:00:28;101528.91;;;12.37;100.00
66273;BME280;58450;52.150;4.466;2023-05-01T05:02:56;101540.00;;;12.42;100.00
66273;BME280;58450;52.150;4.466;2023-05-01T05:05:24;101545.59;;;12.40;100.00
66273;BME280;58450;52.150;4.466;2023-05-01T05:07:51;101539.94;;;12.50;100.00
66273;BME280;58450;52.150;4.466;2023-05-01T05:10:20;101538.19;;;12.57;100.00
66273;BME280;58450;52.150;4.466;2023-05-01T05:12:47;101536.34;;;12.58;100.00
66273;BME280;58450;52.150;4.466;2023-05-01T05:15:15;101534.66;;;12.57;100.00
66273;BME280;58450;52.150;4.466;2023-05-01T05:17:42;101538.91;;;12.51;100.00
66273;BME280;58450;52.150;4.466;2023-05-01T05:20:10;101532.47;;;12.76;100.00
66273;BME280;58450;52.150;4.466;2023-05-01T05:22:38;101537.50;;;12.79;100.00
66273;BME280;58450;52.150;4.466;2023-05-01T05:25:06;101538.13;;;12.81;100.00
66273;BME280;58450;52.150;4.466;2023-05-01T05:27:35;101547.00;;;12.90;100.00
66273;BME280;58450;52.150;4.466;2023-05-01T05:30:03;101538.69;;;12.61;100.00
66273;BME280;58450;52.150;4.466;2023-05-01T05:32:31;101543.28;;;12.76;100.00
66273;BME280;58450;52.150;4.466;2023-05-01T05:34:59;101533.38;;;12.83;100.00
66273;BME280;58450;52.150;4.466;2023-05-01T05:37:27;101539.44;;;12.85;100.00
66273;BME280;58450;52.150;4.466;2023-05-01T05:39:55;101548.69;;;12.91;100.00
66273;BME280;58450;52.150;4.466;2023-05-01T05:42:22;101539.25;;;12.71;100.00
66273;BME280;58450;52.150;4.466;2023-05-01T05:44:51;101542.03;;;12.93;100.00
66273;BME280;58450;52.150;4.466;2023-05-01T05:47:19;101540.03;;;13.10;100.00
66273;BME280;58450;52.150;4.466;2023-05-01T05:49:46;101539.28;;;13.17;100.00
66273;BME280;58450;52.150;4.466;2023-05-01T05:52:14;101531.16;;;13.01;100.00
66273;BME280;58450;52.150;4.466;2023-05-01T05:54:41;101539.28;;;13.17;100.00
66273;BME280;58450;52.150;4.466;2023-05-01T05:57:09;101541.47;;;13.28;100.00
66273;BME280;58450;52.150;4.466;2023-05-01T05:59:39;101536.81;;;13.37;100.00
66273;BME280;58450;52.150;4.466;2023-05-01T06:02:11;101535.34;;;13.19;100.00
66273;BME280;58450;52.150;4.466;2023-05-01T06:04:38;101522.00;;;13.33;100.00
66273;BME280;58450;52.150;4.466;2023-05-01T06:07:06;101525.19;;;13.51;100.00
66273;BME280;58450;52.150;4.466;2023-05-01T06:09:33;101521.41;;;13.67;100.00
66273;BME280;58450;52.150;4.466;2023-05-01T06:12:01;101519.66;;;13.81;100.00
66273;BME280;58450;52.150;4.466;2023-05-01T06:14:30;101519.22;;;13.78;100.00
66273;BME280;58450;52.150;4.466;2023-05-01T06:16:58;101521.94;;;13.78;100.00
66273;BME280;58450;52.150;4.466;2023-05-01T06:19:27;101524.63;;;13.78;100.00
66273;BME280;58450;52.150;4.466;2023-05-01T06:21:55;101516.78;;;13.83;100.00
66273;BME280;58450;52.150;4.466;2023-05-01T06:24:22;101514.13;;;13.89;100.00
66273;BME280;58450;52.150;4.466;2023-05-01T06:26:50;101520.44;;;13.97;100.00
66273;BME280;58450;52.150;4.466;2023-05-01T06:29:17;101517.88;;;14.10;100.00
66273;BME280;58450;52.150;4.466;2023-05-01T06:31:45;101521.56;;;14.02;100.00
66273;BME280;58450;52.150;4.466;2023-05-01T06:34:12;101523.28;;;13.88;100.00
66273;BME280;58450;52.150;4.466;2023-05-01T06:36:41;101517.31;;;13.93;100.00
66273;BME280;58450;52.150;4.466;2023-05-01T06:39:08;101527.94;;;14.16;100.00
66273;BME280;58450;52.150;4.466;2023-05-01T06:41:36;101526.63;;;14.12;100.00
66273;BME280;58450;52.150;4.466;2023-05-01T06:44:03;101524.78;;;14.13;100.00
66273;BME280;58450;52.150;4.466;2023-05-01T06:46:31;101533.13;;;14.18;100.00
66273;BME280;58450;52.150;4.466;2023-05-01T06:48:58;101526.56;;;14.27;100.00
66273;BME280;58450;52.150;4.466;2023-05-01T06:51:26;101522.75;;;14.22;100.00
66273;BME280;58450;52.150;4.466;2023-05-01T06:53:56;101519.84;;;14.23;100.00
66273;BME280;58450;52.150;4.466;2023-05-01T06:56:24;101527.78;;;14.25;100.00
66273;BME280;58450;52.150;4.466;2023-05-01T06:58:51;101519.06;;;14.29;100.00
66273;BME280;58450;52.150;4.466;2023-05-01T07:01:19;101515.47;;;14.22;100.00
66273;BME280;58450;52.150;4.466;2023-05-01T07:03:46;101521.22;;;14.34;100.00
66273;BME280;58450;52.150;4.466;2023-05-01T07:06:14;101518.41;;;14.49;100.00
66273;BME280;58450;52.150;4.466;2023-05-01T07:08:41;101520.16;;;14.57;100.00
66273;BME280;58450;52.150;4.466;2023-05-01T07:11:10;101515.69;;;14.71;100.00
66273;BME280;58450;52.150;4.466;2023-05-01T07:13:37;101520.34;;;14.84;100.00
66273;BME280;58450;52.150;4.466;2023-05-01T07:16:06;101517.69;;;14.90;100.00
66273;BME280;58450;52.150;4.466;2023-05-01T07:18:33;101506.63;;;14.92;100.00
66273;BME280;58450;52.150;4.466;2023-05-01T07:21:02;101524.00;;;15.04;100.00
66273;BME280;58450;52.150;4.466;2023-05-01T07:23:31;101530.88;;;15.07;100.00
66273;BME280;58450;52.150;4.466;2023-05-01T07:25:58;101531.75;;;15.14;100.00
66273;BME280;58450;52.150;4.466;2023-05-01T07:28:27;101525.75;;;15.19;100.00
66273;BME280;58450;52.150;4.466;2023-05-01T07:30:54;101524.72;;;15.20;100.00
66273;BME280;58450;52.150;4.466;2023-05-01T07:33:22;101530.53;;;15.17;100.00
66273;BME280;58450;52.150;4.466;2023-05-01T07:35:50;101523.97;;;15.40;100.00
66273;BME280;58450;52.150;4.466;2023-05-01T07:38:18;101517.75;;;15.52;100.00
66273;BME280;58450;52.150;4.466;2023-05-01T07:40:46;101517.75;;;15.59;100.00
66273;BME280;58450;52.150;4.466;2023-05-01T07:43:14;101513.81;;;15.69;99.53
66273;BME280;58450;52.150;4.466;2023-05-01T07:45:53;101510.72;;;15.85;98.95
66273;BME280;58450;52.150;4.466;2023-05-01T07:48:22;101518.47;;;15.95;98.18
66273;BME280;58450;52.150;4.466;2023-05-01T07:50:50;101523.94;;;16.02;97.52
66273;BME280;58450;52.150;4.466;2023-05-01T07:53:19;101517.28;;;16.11;96.86
66273;BME280;58450;52.150;4.466;2023-05-01T07:55:47;101520.81;;;16.18;96.09
66273;BME280;58450;52.150;4.466;2023-05-01T07:58:15;101520.41;;;16.21;95.15
66273;BME280;58450;52.150;4.466;2023-05-01T08:00:44;101515.59;;;16.37;94.89
66273;BME280;58450;52.150;4.466;2023-05-01T08:03:12;101515.59;;;16.44;94.44
66273;BME280;58450;52.150;4.466;2023-05-01T08:05:39;101518.31;;;16.44;93.91
66273;BME280;58450;52.150;4.466;2023-05-01T08:08:07;101523.94;;;16.55;92.48
66273;BME280;58450;52.150;4.466;2023-05-01T08:10:35;101529.81;;;16.46;92.16
66273;BME280;58450;52.150;4.466;2023-05-01T08:13:02;101539.41;;;16.55;92.02
66273;BME280;58450;52.150;4.466;2023-05-01T08:15:30;101533.97;;;16.28;91.96
66273;BME280;58450;52.150;4.466;2023-05-01T08:17:58;101536.25;;;16.04;92.24
66273;BME280;58450;52.150;4.466;2023-05-01T08:20:26;101538.63;;;15.65;94.03
66273;BME280;58450;52.150;4.466;2023-05-01T08:22:53;101538.44;;;15.67;94.88
66273;BME280;58450;52.150;4.466;2023-05-01T08:25:21;101541.66;;;15.91;94.44
66273;BME280;58450;52.150;4.466;2023-05-01T08:27:49;101540.31;;;15.66;95.61
66273;BME280;58450;52.150;4.466;2023-05-01T08:30:17;101549.75;;;15.84;95.49
66273;BME280;58450;52.150;4.466;2023-05-01T08:32:45;101537.72;;;15.93;96.06
66273;BME280;58450;52.150;4.466;2023-05-01T08:35:14;101534.63;;;16.23;95.38
66273;BME280;58450;52.150;4.466;2023-05-01T08:37:42;101541.06;;;16.36;93.93
66273;BME280;58450;52.150;4.466;2023-05-01T08:40:10;101541.72;;;16.45;93.78
66273;BME280;58450;52.150;4.466;2023-05-01T08:42:38;101538.56;;;16.34;93.91
66273;BME280;58450;52.150;4.466;2023-05-01T08:45:07;101536.91;;;16.20;92.23
66273;BME280;58450;52.150;4.466;2023-05-01T08:47:38;101550.00;;;15.96;93.78
66273;BME280;58450;52.150;4.466;2023-05-01T08:50:09;101548.34;;;15.88;94.80
66273;BME280;58450;52.150;4.466;2023-05-01T08:52:39;101557.16;;;15.42;96.23
66273;BME280;58450;52.150;4.466;2023-05-01T08:55:11;101560.03;;;15.33;95.91
66273;BME280;58450;52.150;4.466;2023-05-01T08:57:43;101560.72;;;14.78;100.00
66273;BME280;58450;52.150;4.466;2023-05-01T09:00:17;101562.84;;;14.33;100.00
66273;BME280;58450;52.150;4.466;2023-05-01T09:02:46;101568.81;;;14.50;100.00
66273;BME280;58450;52.150;4.466;2023-05-01T09:05:16;101565.94;;;14.08;100.00
66273;BME280;58450;52.150;4.466;2023-05-01T09:07:46;101565.28;;;13.84;100.00
66273;BME280;58450;52.150;4.466;2023-05-01T09:10:15;101569.13;;;14.12;100.00
66273;BME280;58450;52.150;4.466;2023-05-01T09:12:46;101568.28;;;14.11;100.00
66273;BME280;58450;52.150;4.466;2023-05-01T09:15:20;101574.13;;;13.93;100.00
66273;BME280;58450;52.150;4.466;2023-05-01T09:17:51;101575.41;;;13.97;100.00
66273;BME280;58450;52.150;4.466;2023-05-01T09:20:20;101585.75;;;14.09;100.00
66273;BME280;58450;52.150;4.466;2023-05-01T09:22:50;101579.03;;;14.04;100.00
66273;BME280;58450;52.150;4.466;2023-05-01T09:25:18;101582.47;;;13.77;100.00
66273;BME280;58450;52.150;4.466;2023-05-01T09:27:45;101595.91;;;13.70;100.00
66273;BME280;58450;52.150;4.466;2023-05-01T09:30:31;101598.13;;;13.81;100.00
66273;BME280;58450;52.150;4.466;2023-05-01T09:33:04;101604.41;;;13.67;100.00
66273;BME280;58450;52.150;4.466;2023-05-01T09:35:47;101606.03;;;13.46;100.00
66273;BME280;58450;52.150;4.466;2023-05-01T09:38:21;101608.03;;;13.29;100.00
66273;BME280;58450;52.150;4.466;2023-05-01T09:40:50;101598.25;;;12.98;100.00
66273;BME280;58450;52.150;4.466;2023-05-01T09:43:24;101606.31;;;12.83;100.00
66273;BME280;58450;52.150;4.466;2023-05-01T09:46:03;101605.31;;;12.61;100.00
66273;BME280;58450;52.150;4.466;2023-05-01T09:48:34;101612.91;;;12.65;100.00
66273;BME280;58450;52.150;4.466;2023-05-01T09:51:22;101622.03;;;12.64;100.00
66273;BME280;58450;52.150;4.466;2023-05-01T09:53:54;101617.22;;;12.75;100.00
66273;BME280;58450;52.150;4.466;2023-05-01T09:56:24;101622.78;;;12.73;100.00
66273;BME280;58450;52.150;4.466;2023-05-01T09:58:53;101633.41;;;12.75;100.00
66273;BME280;58450;52.150;4.466;2023-05-01T10:01:37;101629.16;;;12.57;100.00
66273;BME280;58450;52.150;4.466;2023-05-01T10:04:05;101637.94;;;12.36;100.00
66273;BME280;58450;52.150;4.466;2023-05-01T10:06:33;101642.78;;;12.40;100.00
66273;BME280;58450;52.150;4.466;2023-05-01T10:09:03;101647.63;;;12.22;100.00
66273;BME280;58450;52.150;4.466;2023-05-01T10:11:46;101646.31;;;12.41;100.00
66273;BME280;58450;52.150;4.466;2023-05-01T10:14:14;101637.63;;;12.54;100.00
66273;BME280;58450;52.150;4.466;2023-05-01T10:16:42;101636.47;;;12.48;100.00
66273;BME280;58450;52.150;4.466;2023-05-01T10:19:10;101627.16;;;12.74;100.00
66273;BME280;58450;52.150;4.466;2023-05-01T10:21:38;101625.13;;;12.76;100.00
66273;BME280;58450;52.150;4.466;2023-05-01T10:24:07;101630.09;;;13.03;100.00
66273;BME280;58450;52.150;4.466;2023-05-01T10:26:36;101628.50;;;12.93;100.00
66273;BME280;58450;52.150;4.466;2023-05-01T10:29:03;101635.22;;;12.97;100.00
66273;BME280;58450;52.150;4.466;2023-05-01T10:31:31;101628.06;;;13.05;100.00
66273;BME280;58450;52.150;4.466;2023-05-01T10:33:59;101635.84;;;13.23;100.00
66273;BME280;58450;52.150;4.466;2023-05-01T10:36:31;101636.84;;;13.22;100.00
66273;BME280;58450;52.150;4.466;2023-05-01T10:39:04;101635.13;;;12.91;100.00
66273;BME280;58450;52.150;4.466;2023-05-01T10:42:06;101628.34;;;13.10;100.00
66273;BME280;58450;52.150;4.466;2023-05-01T10:44:36;101629.84;;;13.27;100.00
66273;BME280;58450;52.150;4.466;2023-05-01T10:50:12;101621.88;;;13.49;100.00
66273;BME280;58450;52.150;4.466;2023-05-01T10:53:15;101627.25;;;13.64;100.00
66273;BME280;58450;52.150;4.466;2023-05-01T10:55:43;101616.59;;;13.78;100.00
66273;BME280;58450;52.150;4.466;2023-05-01T11:01:30;101615.56;;;14.15;100.00
66273;BME280;58450;52.150;4.466;2023-05-01T11:03:59;101611.22;;;14.36;100.00
66273;BME280;58450;52.150;4.466;2023-05-01T11:06:29;101623.75;;;14.44;100.00
66273;BME280;58450;52.150;4.466;2023-05-01T11:08:58;101611.97;;;14.52;100.00
66273;BME280;58450;52.150;4.466;2023-05-01T11:11:45;101609.97;;;14.82;100.00
66273;BME280;58450;52.150;4.466;2023-05-01T11:14:17;101613.84;;;14.73;100.00
66273;BME280;58450;52.150;4.466;2023-05-01T11:16:45;101618.63;;;14.99;100.00
66273;BME280;58450;52.150;4.466;2023-05-01T11:19:44;101612.75;;;15.24;100.00
66273;BME280;58450;52.150;4.466;2023-05-01T11:22:15;101606.63;;;15.50;100.00
66273;BME280;58450;52.150;4.466;2023-05-01T11:24:44;101610.72;;;15.81;100.00
66273;BME280;58450;52.150;4.466;2023-05-01T11:27:15;101602.00;;;15.93;100.00
66273;BME280;58450;52.150;4.466;2023-05-01T11:29:44;101599.78;;;16.23;100.00
66273;BME280;58450;52.150;4.466;2023-05-01T11:32:16;101604.84;;;16.47;100.00
66273;BME280;58450;52.150;4.466;2023-05-01T11:34:45;101598.13;;;16.76;100.00
66273;BME280;58450;52.150;4.466;2023-05-01T11:37:16;101603.56;;;17.17;100.00
66273;BME280;58450;52.150;4.466;2023-05-01T11:39:50;101605.53;;;17.55;100.00
66273;BME280;58450;52.150;4.466;2023-05-01T11:42:21;101604.56;;;18.27;100.00
66273;BME280;58450;52.150;4.466;2023-05-01T11:45:06;101611.34;;;19.38;100.00
66273;BME280;58450;52.150;4.466;2023-05-01T11:47:36;101609.19;;;19.96;100.00
66273;BME280;58450;52.150;4.466;2023-05-01T11:50:04;101608.00;;;20.46;100.00
66273;BME280;58450;52.150;4.466;2023-05-01T11:52:43;101608.84;;;21.41;100.00
66273;BME280;58450;52.150;4.466;2023-05-01T11:55:13;101608.13;;;21.46;93.45
66273;BME280;58450;52.150;4.466;2023-05-01T11:57:46;101610.94;;;20.87;90.63
66273;BME280;58450;52.150;4.466;2023-05-01T12:00:25;101601.41;;;21.01;88.76
66273;BME280;58450;52.150;4.466;2023-05-01T12:02:56;101603.13;;;21.43;88.28
66273;BME280;58450;52.150;4.466;2023-05-01T12:05:24;101604.66;;;21.63;87.80
66273;BME280;58450;52.150;4.466;2023-05-01T12:08:05;101608.25;;;22.38;83.45
66273;BME280;58450;52.150;4.466;2023-05-01T12:10:36;101602.38;;;23.03;81.93
66273;BME280;58450;52.150;4.466;2023-05-01T12:13:06;101602.81;;;23.56;80.74
66273;BME280;58450;52.150;4.466;2023-05-01T12:15:38;101601.66;;;24.62;76.25
66273;BME280;58450;52.150;4.466;2023-05-01T12:18:07;101600.56;;;25.54;71.57
66273;BME280;58450;52.150;4.466;2023-05-01T12:20:39;101600.84;;;25.52;67.98
66273;BME280;58450;52.150;4.466;2023-05-01T12:23:09;101596.63;;;25.40;62.85
66273;BME280;58450;52.150;4.466;2023-05-01T12:25:39;101591.28;;;25.12;63.19
66273;BME280;58450;52.150;4.466;2023-05-01T12:28:09;101592.47;;;23.91;64.08
66273;BME280;58450;52.150;4.466;2023-05-01T12:30:41;101592.56;;;23.24;68.52
66273;BME280;58450;52.150;4.466;2023-05-01T12:33:11;101593.50;;;24.07;69.23
66273;BME280;58450;52.150;4.466;2023-05-01T12:35:40;101591.72;;;25.47;63.84
66273;BME280;58450;52.150;4.466;2023-05-01T12:38:11;101593.81;;;26.76;60.26
66273;BME280;58450;52.150;4.466;2023-05-01T12:40:52;101599.63;;;26.38;54.63
66273;BME280;58450;52.150;4.466;2023-05-01T12:43:21;101590.09;;;25.51;54.35
66273;BME280;58450;52.150;4.466;2023-05-01T12:45:57;101593.75;;;25.82;55.48
66273;BME280;58450;52.150;4.466;2023-05-01T12:48:25;101589.25;;;25.45;53.93
66273;BME280;58450;52.150;4.466;2023-05-01T12:50:54;101592.00;;;24.22;54.58
66273;BME280;58450;52.150;4.466;2023-05-01T12:53:22;101589.81;;;22.68;57.93
66273;BME280;58450;52.150;4.466;2023-05-01T12:55:52;101601.00;;;21.45;62.46
66273;BME280;58450;52.150;4.466;2023-05-01T12:58:21;101596.91;;;20.95;66.15
66273;BME280;58450;52.150;4.466;2023-05-01T13:00:50;101595.91;;;19.81;70.98
66273;BME280;58450;52.150;4.466;2023-05-01T13:03:24;101598.34;;;18.96;81.49
66273;BME280;58450;52.150;4.466;2023-05-01T13:05:53;101607.09;;;17.83;88.78